Hutchinson, Kansas
Current Conditions -  °F | °C
As of 2:52 PM on Wednesday 17 Dec 2014 (Local Time) from KHUT Reporting Station
Overcast Overcast  
Wind Chill: 24°   Ceiling: 4800
Heat Index: 32°   Visibility: 10mi
Dew Point: 24°   Wind: 9mph
Humidity: 73%   Direction: 110°ESE
Pressure: 30.16"   Gusts: NA
Location:  38.06°N, 97.93°W
Report Text: KHUT 172052Z 11008KT 10SM OVC048 00/M04 A3016 RMK AO2 SLP222 T00001044 56026
Loading
Personal Weather Stations






























Interactive Weather Map New forecast layout! Learn more

10-Day Weather Forecast

Advertisements
Track Severe Weather on mobile